Time;durP1;ratioP1;P1;durP2;ratioP2;P2;SDS_P1;SDS_P2;PMS_P1;PMS_P2;Temp;Humidity;BMP_temperature;BMP_pressure;BME280_temperature;BME280_humidity;BME280_pressure;Samples;Min_cycle;Max_cycle;Signal;HPM_P1;HPM_P2
2023/01/10 00:00:13;;;;;;;19.60;5.73;;;;;;;3.31;100.00;101069.78;5242745;28;20104;-73
2023/01/10 00:02:44;;;;;;;15.37;4.93;;;;;;;3.33;100.00;101073.25;5242669;28;20037;-73
2023/01/10 00:05:17;;;;;;;19.17;5.23;;;;;;;3.29;100.00;101083.50;5242315;28;20037;-73
2023/01/10 00:07:48;;;;;;;19.02;5.75;;;;;;;3.33;100.00;101093.88;5241972;28;20033;-74
2023/01/10 00:10:20;;;;;;;19.63;5.33;;;;;;;3.31;100.00;101092.97;5242229;28;20029;-73
2023/01/10 00:15:41;;;;;;;13.00;5.13;;;;;;;3.20;100.00;101096.16;5242150;28;20041;-73
2023/01/10 00:18:12;;;;;;;20.30;5.83;;;;;;;3.17;100.00;101105.53;5242232;28;20037;-72
2023/01/10 00:20:44;;;;;;;17.00;4.90;;;;;;;3.17;100.00;101113.25;5242214;28;20468;-73
2023/01/10 00:23:17;;;;;;;16.58;5.38;;;;;;;3.14;100.00;101120.91;5241718;28;20033;-73
2023/01/10 00:25:48;;;;;;;27.40;6.93;;;;;;;3.19;100.00;101127.94;5242221;28;20187;-72
2023/01/10 00:28:20;;;;;;;28.13;6.57;;;;;;;3.15;100.00;101123.53;5240381;28;20128;-73
2023/01/10 00:31:00;;;;;;;19.70;5.20;;;;;;;3.12;100.00;101138.06;5241006;28;20032;-73
2023/01/10 00:33:32;;;;;;;14.60;5.18;;;;;;;3.16;100.00;101139.88;5242204;28;20457;-72
2023/01/10 00:36:06;;;;;;;20.08;5.78;;;;;;;3.09;100.00;101144.88;5241647;28;20041;-73
2023/01/10 00:38:37;;;;;;;19.60;6.38;;;;;;;3.04;100.00;101154.22;5240752;28;20075;-73
2023/01/10 00:43:55;;;;;;;20.50;5.43;;;;;;;3.01;100.00;101146.41;5242016;28;20067;-73
2023/01/10 00:44:00;;;;;;;18.85;5.18;;;;;;;2.97;100.00;101154.88;5241603;28;20396;-73
2023/01/10 00:46:31;;;;;;;23.13;5.63;;;;;;;2.95;100.00;101156.56;5242009;28;20048;-73
2023/01/10 00:49:07;;;;;;;20.17;5.33;;;;;;;2.97;100.00;101154.03;5241855;28;20038;-73
2023/01/10 00:51:38;;;;;;;18.58;5.93;;;;;;;2.98;100.00;101154.06;5241786;28;20037;-73
2023/01/10 00:54:11;;;;;;;19.60;5.50;;;;;;;3.03;100.00;101151.59;5241646;28;20029;-72
2023/01/10 00:56:42;;;;;;;17.10;5.25;;;;;;;3.04;100.00;101159.38;5241813;28;20030;-73
2023/01/10 00:59:13;;;;;;;17.67;5.77;;;;;;;3.10;100.00;101158.63;5241237;28;20102;-72
2023/01/10 01:01:45;;;;;;;20.57;5.67;;;;;;;3.18;100.00;101162.25;5242116;28;20043;-73
2023/01/10 01:04:17;;;;;;;17.70;5.93;;;;;;;3.22;100.00;101164.06;5240568;28;20179;-74
2023/01/10 01:06:49;;;;;;;22.53;5.87;;;;;;;3.27;100.00;101154.75;5241722;28;20029;-73
2023/01/10 01:09:20;;;;;;;16.90;5.60;;;;;;;3.33;100.00;101169.44;5241260;28;20034;-73
2023/01/10 01:11:52;;;;;;;15.47;5.17;;;;;;;3.31;100.00;101175.44;5241580;28;20065;-73
2023/01/10 01:14:24;;;;;;;16.53;5.07;;;;;;;3.31;100.00;101171.13;5241675;28;20100;-73
2023/01/10 01:16:56;;;;;;;22.57;6.73;;;;;;;3.31;100.00;101186.59;5241655;28;20091;-72
2023/01/10 01:19:28;;;;;;;21.42;8.18;;;;;;;3.33;100.00;101194.38;5241119;28;20038;-72
2023/01/10 01:21:59;;;;;;;26.40;8.27;;;;;;;3.33;100.00;101192.66;5241334;28;20029;-72
2023/01/10 01:24:30;;;;;;;21.50;9.50;;;;;;;3.35;100.00;101197.84;5241591;28;20112;-72
2023/01/10 01:27:02;;;;;;;26.23;10.60;;;;;;;3.35;100.00;101206.47;5239595;28;20037;-72
2023/01/10 01:29:33;;;;;;;26.50;11.37;;;;;;;3.38;100.00;101203.06;5241667;28;20033;-73
2023/01/10 01:32:04;;;;;;;26.27;11.33;;;;;;;3.37;100.00;101199.63;5248875;28;20033;-74
2023/01/10 01:34:36;;;;;;;23.63;10.87;;;;;;;3.36;100.00;101207.31;5259835;28;20112;-73
2023/01/10 01:37:07;;;;;;;28.83;11.03;;;;;;;3.32;100.00;101208.06;5251525;28;20034;-73
2023/01/10 01:39:38;;;;;;;19.70;10.97;;;;;;;3.32;100.00;101205.50;5244951;28;20021;-73
2023/01/10 01:42:31;;;;;;;32.40;11.53;;;;;;;3.40;100.00;101216.88;5244040;28;20033;-73
2023/01/10 01:45:21;;;;;;;25.58;10.07;;;;;;;3.52;100.00;101231.75;5243062;28;20036;-73
2023/01/10 01:47:55;;;;;;;20.75;9.32;;;;;;;3.57;100.00;101236.16;5242399;28;20074;-73
2023/01/10 01:50:45;;;;;;;26.42;8.27;;;;;;;3.54;100.00;101233.53;5246852;28;20543;-73
2023/01/10 01:53:36;;;;;;;22.52;6.97;;;;;;;3.51;100.00;101232.56;5247363;28;20021;-73
2023/01/10 01:56:17;;;;;;;24.65;8.35;;;;;;;3.54;100.00;101251.59;5247372;28;20026;-73
2023/01/10 01:58:53;;;;;;;29.13;8.93;;;;;;;3.56;100.00;101243.84;5230326;28;20078;-73
2023/01/10 02:01:27;;;;;;;25.20;7.18;;;;;;;3.55;100.00;101248.16;5242808;28;20035;-73
2023/01/10 02:04:28;;;;;;;24.42;6.85;;;;;;;3.58;100.00;101252.53;5243649;28;20068;-72
2023/01/10 02:06:59;;;;;;;24.98;7.63;;;;;;;3.63;100.00;101243.19;5245502;28;20025;-73
2023/01/10 02:09:54;;;;;;;20.47;8.53;;;;;;;3.68;100.00;101253.59;5244871;28;20029;-74
2023/01/10 02:12:29;;;;;;;23.60;6.80;;;;;;;3.68;100.00;101245.88;5245123;28;20500;-73
2023/01/10 02:15:02;;;;;;;21.90;6.47;;;;;;;3.67;100.00;101249.28;5244051;28;20040;-73
2023/01/10 02:17:33;;;;;;;28.30;7.05;;;;;;;3.60;100.00;101250.84;5243660;28;20043;-73
2023/01/10 02:20:07;;;;;;;24.90;7.33;;;;;;;3.53;100.00;101257.56;5244919;28;20026;-73
2023/01/10 02:22:40;;;;;;;22.27;7.22;;;;;;;3.52;100.00;101262.69;5239396;28;20109;-72
2023/01/10 02:25:26;;;;;;;;;;;;;;;3.49;100.00;101257.44;5224463;28;20026;-73
2023/01/10 02:28:28;;;;;;;25.85;7.72;;;;;;;3.46;100.00;101255.66;5222655;28;20284;-73
2023/01/10 02:31:14;;;;;;;19.20;6.15;;;;;;;3.44;100.00;101267.66;5232239;28;20037;-73
2023/01/10 02:34:07;;;;;;;22.83;6.55;;;;;;;3.43;100.00;101253.91;5244900;28;20033;-73
2023/01/10 02:36:57;;;;;;;22.17;5.67;;;;;;;3.44;100.00;101250.47;5238454;28;20102;-73
2023/01/10 02:39:54;;;;;;;24.70;7.30;;;;;;;3.41;100.00;101249.53;5223535;28;20030;-73
2023/01/10 02:42:29;;;;;;;22.90;6.50;;;;;;;3.36;100.00;101253.72;5212628;28;20428;-73
2023/01/10 02:45:21;;;;;;;20.83;5.28;;;;;;;3.31;100.00;101260.47;5223537;28;20026;-73
2023/01/10 02:47:55;;;;;;;16.77;6.13;;;;;;;3.23;100.00;101255.97;5243409;28;20455;-73
2023/01/10 02:50:35;;;;;;;23.17;7.10;;;;;;;3.17;100.00;101261.00;5244098;28;20033;-73
2023/01/10 02:53:39;;;;;;;25.75;5.57;;;;;;;3.19;100.00;101266.16;5243918;28;20033;-73
2023/01/10 02:56:43;;;;;;;25.55;7.05;;;;;;;3.14;100.00;101262.59;5243804;28;20401;-73
2023/01/10 02:59:35;;;;;;;21.83;6.05;;;;;;;3.13;100.00;101269.47;5243190;28;20038;-73
2023/01/10 03:02:27;;;;;;;26.23;6.60;;;;;;;3.04;100.00;101267.53;5242518;28;20025;-73
2023/01/10 03:05:09;;;;;;;21.98;6.53;;;;;;;3.04;100.00;101280.41;5243078;28;20132;-73
2023/01/10 03:08:02;;;;;;;29.35;6.10;;;;;;;3.03;100.00;101280.38;5243867;28;20030;-72
2023/01/10 03:10:43;;;;;;;20.92;5.88;;;;;;;2.95;100.00;101289.56;5243345;28;20427;-72
2023/01/10 03:13:25;;;;;;;27.77;6.20;;;;;;;2.99;100.00;101297.44;5243788;28;20025;-73
2023/01/10 03:16:00;;;;;;;23.08;5.65;;;;;;;3.04;100.00;101300.13;5242892;28;20057;-72
2023/01/10 03:19:02;;;;;;;24.48;5.65;;;;;;;3.06;100.00;101293.34;5243549;28;20036;-73
2023/01/10 03:21:36;;;;;;;27.93;5.57;;;;;;;3.10;100.00;101316.63;5242458;28;20033;-73
2023/01/10 03:24:22;;;;;;;19.13;6.70;;;;;;;3.17;100.00;101317.66;5243393;28;20461;-72
2023/01/10 03:27:06;;;;;;;22.52;6.90;;;;;;;3.17;100.00;101317.66;5242118;28;20025;-73
2023/01/10 03:29:48;;;;;;;17.90;5.82;;;;;;;3.26;100.00;101317.88;5242959;28;20474;-73
2023/01/10 03:32:24;;;;;;;22.27;7.07;;;;;;;3.30;100.00;101318.88;5242029;28;20420;-73
2023/01/10 03:34:58;;;;;;;27.10;5.57;;;;;;;3.32;100.00;101330.06;5242864;28;20033;-73
2023/01/10 03:37:49;;;;;;;22.02;5.55;;;;;;;3.37;100.00;101325.03;5243373;28;20040;-72
2023/01/10 03:40:44;;;;;;;26.30;6.40;;;;;;;3.41;100.00;101319.13;5243355;28;20033;-73
2023/01/10 03:46:31;;;;;;;20.67;5.60;;;;;;;3.43;100.00;101328.63;5242719;28;20069;-73
2023/01/10 03:49:05;;;;;;;15.73;4.93;;;;;;;3.48;100.00;101339.06;5242266;28;20029;-72
2023/01/10 03:51:38;;;;;;;17.83;4.95;;;;;;;3.51;100.00;101341.72;5242731;28;20055;-73
2023/01/10 03:54:11;;;;;;;26.23;5.05;;;;;;;3.56;100.00;101349.53;5241961;28;20064;-72
2023/01/10 03:56:50;;;;;;;20.63;5.93;;;;;;;3.52;100.00;101351.19;5242013;28;20037;-72
2023/01/10 03:59:26;;;;;;;23.23;6.45;;;;;;;3.57;100.00;101353.88;5241768;28;20051;-73
2023/01/10 04:01:58;;;;;;;21.65;5.78;;;;;;;3.56;100.00;101360.75;5242350;28;20117;-73
2023/01/10 04:04:31;;;;;;;17.53;5.40;;;;;;;3.60;100.00;101365.13;5241875;28;20109;-72
2023/01/10 04:07:02;;;;;;;;;;;;;;;3.67;100.00;101366.19;5242803;28;20416;-73
2023/01/10 04:09:33;;;;;;;21.92;5.03;;;;;;;3.65;100.00;101367.81;5242392;28;19924;-73
2023/01/10 04:12:05;;;;;;;24.03;6.87;;;;;;;3.63;100.00;101369.50;5241661;28;20045;-72
2023/01/10 04:14:36;;;;;;;22.53;5.43;;;;;;;3.68;100.00;101372.19;5242525;28;20040;-72
2023/01/10 04:17:07;;;;;;;24.30;7.07;;;;;;;3.65;100.00;101373.88;5241109;28;20112;-72
2023/01/10 04:19:39;;;;;;;25.07;6.17;;;;;;;3.64;100.00;101379.84;5242132;28;20119;-72
2023/01/10 04:22:11;;;;;;;20.67;5.23;;;;;;;3.68;100.00;101391.13;5242323;28;20072;-72
2023/01/10 04:24:43;;;;;;;22.90;5.55;;;;;;;3.67;100.00;101391.97;5242533;28;20025;-72
2023/01/10 04:27:14;;;;;;;26.13;6.23;;;;;;;3.64;100.00;101394.47;5241301;28;20040;-72
2023/01/10 04:29:46;;;;;;;28.73;6.53;;;;;;;3.62;100.00;101396.09;5241000;28;20040;-72
2023/01/10 04:32:17;;;;;;;26.45;6.35;;;;;;;3.62;100.00;101393.53;5242293;28;20029;-72
2023/01/10 04:34:49;;;;;;;22.27;5.77;;;;;;;3.66;100.00;101390.22;5241939;28;20040;-72
2023/01/10 04:37:20;;;;;;;18.60;5.17;;;;;;;3.72;100.00;101390.38;5240838;28;20025;-72
2023/01/10 04:39:51;;;;;;;26.50;6.73;;;;;;;3.77;100.00;101386.19;5242269;28;20262;-72
2023/01/10 04:42:23;;;;;;;26.40;6.63;;;;;;;3.77;100.00;101380.19;5242241;28;20417;-71
2023/01/10 04:44:54;;;;;;;24.83;5.63;;;;;;;3.80;100.00;101380.22;5241717;28;20038;-72
2023/01/10 04:47:26;;;;;;;33.37;8.30;;;;;;;3.79;100.00;101381.06;5241628;28;20461;-72
2023/01/10 04:49:57;;;;;;;28.37;5.30;;;;;;;3.77;100.00;101390.50;5241862;28;20029;-71
2023/01/10 04:52:28;;;;;;;26.93;6.00;;;;;;;3.76;100.00;101399.06;5243759;28;20087;-72
2023/01/10 04:55:00;;;;;;;23.33;5.80;;;;;;;3.82;100.00;101407.81;5243058;28;20029;-73
2023/01/10 04:57:31;;;;;;;25.20;5.83;;;;;;;3.80;100.00;101403.44;5241482;28;20034;-74
2023/01/10 05:00:03;;;;;;;28.37;7.10;;;;;;;3.84;100.00;101395.81;5241362;28;20464;-73
2023/01/10 05:02:35;;;;;;;19.43;5.30;;;;;;;3.81;100.00;101393.16;5241836;28;20033;-71
2023/01/10 05:05:06;;;;;;;20.17;5.47;;;;;;;3.78;100.00;101384.47;5241753;28;20038;-73
2023/01/10 05:07:38;;;;;;;23.20;6.00;;;;;;;3.73;100.00;101394.69;5241446;28;20028;-73
2023/01/10 05:10:10;;;;;;;25.70;5.57;;;;;;;3.70;100.00;101401.47;5241866;28;20427;-72
2023/01/10 05:12:41;;;;;;;22.43;6.07;;;;;;;3.70;100.00;101406.63;5242202;28;20058;-73
2023/01/10 05:15:13;;;;;;;31.27;5.57;;;;;;;3.73;100.00;101419.59;5241653;28;20469;-73
2023/01/10 05:17:44;;;;;;;28.13;5.60;;;;;;;3.80;100.00;101436.97;5242089;28;20087;-73
2023/01/10 05:20:16;;;;;;;23.33;6.73;;;;;;;3.81;100.00;101451.59;5241408;28;20028;-73
2023/01/10 05:22:48;;;;;;;26.83;5.10;;;;;;;3.87;100.00;101471.53;5241739;28;20049;-73
2023/01/10 05:25:19;;;;;;;23.07;7.03;;;;;;;3.92;100.00;101460.50;5244535;28;20036;-73
2023/01/10 05:27:50;;;;;;;28.57;5.67;;;;;;;3.90;100.00;101457.00;5245247;28;20034;-73
2023/01/10 05:30:22;;;;;;;30.33;5.97;;;;;;;3.95;100.00;101460.56;5245406;28;20034;-72
2023/01/10 05:32:53;;;;;;;26.83;6.40;;;;;;;4.01;100.00;101471.03;5244137;28;20135;-73
2023/01/10 05:35:24;;;;;;;30.50;6.20;;;;;;;4.06;100.00;101467.69;5245215;28;20025;-71
2023/01/10 05:37:56;;;;;;;28.97;7.47;;;;;;;4.05;100.00;101460.81;5244232;28;20392;-72
2023/01/10 05:40:27;;;;;;;38.07;7.50;;;;;;;3.99;100.00;101457.25;5244173;28;20388;-72
2023/01/10 05:42:59;;;;;;;28.43;6.13;;;;;;;4.03;100.00;101459.91;5245502;28;20029;-72
2023/01/10 05:45:30;;;;;;;36.47;8.73;;;;;;;4.02;100.00;101471.91;5245017;28;20044;-72
2023/01/10 05:48:01;;;;;;;24.57;6.13;;;;;;;4.05;100.00;101463.38;5243565;28;20033;-73
2023/01/10 05:50:33;;;;;;;27.20;6.53;;;;;;;3.99;100.00;101480.47;5245073;28;20030;-71
2023/01/10 05:53:04;;;;;;;26.67;6.50;;;;;;;3.99;100.00;101472.72;5244987;28;20083;-73
2023/01/10 05:55:36;;;;;;;30.20;6.97;;;;;;;3.98;100.00;101491.59;5244772;28;20138;-73
2023/01/10 05:58:09;;;;;;;25.87;6.93;;;;;;;3.97;100.00;101496.72;5245287;28;20045;-72
2023/01/10 06:00:41;;;;;;;30.08;7.05;;;;;;;3.99;100.00;101497.63;5245901;28;20033;-71
2023/01/10 06:03:12;;;;;;;27.07;7.13;;;;;;;4.04;100.00;101493.44;5244129;28;20045;-73
2023/01/10 06:05:44;;;;;;;28.30;7.03;;;;;;;4.04;100.00;101506.34;5244339;28;20205;-72
2023/01/10 06:08:15;;;;;;;19.67;6.53;;;;;;;4.03;100.00;101499.47;5245694;28;20080;-72
2023/01/10 06:10:47;;;;;;;30.47;7.20;;;;;;;4.05;100.00;101496.94;5245736;28;20050;-72
2023/01/10 06:13:18;;;;;;;34.70;8.27;;;;;;;4.03;100.00;101499.47;5246228;28;20144;-72
2023/01/10 06:15:50;;;;;;;28.00;6.10;;;;;;;4.06;100.00;101490.91;5243745;28;20038;-73
2023/01/10 06:18:21;;;;;;;37.60;7.33;;;;;;;4.01;100.00;101483.94;5244721;28;20091;-73
2023/01/10 06:20:53;;;;;;;31.73;9.33;;;;;;;4.00;100.00;101483.91;5244397;28;20044;-73
2023/01/10 06:23:24;;;;;;;26.47;7.57;;;;;;;4.03;100.00;101499.47;5245681;28;20032;-73
2023/01/10 06:25:55;;;;;;;31.77;6.10;;;;;;;4.00;100.00;101505.41;5244600;28;20126;-72
2023/01/10 06:28:27;;;;;;;25.07;6.50;;;;;;;3.97;100.00;101502.75;5242532;28;20033;-73
2023/01/10 06:30:58;;;;;;;29.97;6.87;;;;;;;3.98;100.00;101503.66;5244022;28;20113;-73
2023/01/10 06:33:29;;;;;;;25.60;7.33;;;;;;;3.94;100.00;101505.25;5243775;28;20036;-73
2023/01/10 06:36:01;;;;;;;21.40;6.37;;;;;;;3.92;100.00;101511.22;5244020;28;20065;-73
2023/01/10 06:38:33;;;;;;;31.20;7.63;;;;;;;3.92;100.00;101514.66;5244587;28;20120;-73
2023/01/10 06:41:11;;;;;;;27.90;5.93;;;;;;;3.83;100.00;101517.88;5244250;28;20473;-73
2023/01/10 06:43:45;;;;;;;23.17;6.47;;;;;;;3.74;100.00;101521.91;5244262;28;20167;-72
2023/01/10 06:46:18;;;;;;;30.83;6.80;;;;;;;3.64;100.00;101518.22;5244121;28;20087;-72
2023/01/10 06:48:49;;;;;;;28.98;8.27;;;;;;;3.55;100.00;101525.69;5243584;28;20358;-74
2023/01/10 06:51:21;;;;;;;30.10;7.30;;;;;;;3.44;100.00;101518.50;5242965;28;20037;-73
2023/01/10 06:53:52;;;;;;;33.67;6.83;;;;;;;3.39;100.00;101519.22;5242896;28;20037;-73
2023/01/10 06:56:23;;;;;;;42.27;7.60;;;;;;;3.36;100.00;101532.03;5244096;28;20553;-73
2023/01/10 06:58:55;;;;;;;39.63;8.30;;;;;;;3.34;100.00;101544.00;5242321;28;20037;-73
2023/01/10 07:01:27;;;;;;;31.87;6.03;;;;;;;3.26;100.00;101544.63;5243975;28;20109;-73
2023/01/10 07:03:58;;;;;;;27.63;6.53;;;;;;;3.23;100.00;101544.53;5242347;28;20090;-73
2023/01/10 07:06:30;;;;;;;34.07;9.33;;;;;;;3.29;100.00;101552.47;5242517;28;20090;-73
2023/01/10 07:09:02;;;;;;;30.63;7.10;;;;;;;3.31;100.00;101556.78;5243591;28;20377;-72
2023/01/10 07:11:34;;;;;;;33.75;7.75;;;;;;;3.23;100.00;101569.44;5243566;28;20140;-72
2023/01/10 07:14:08;;;;;;;27.35;6.22;;;;;;;3.22;100.00;101578.00;5243632;28;20060;-72
2023/01/10 07:16:39;;;;;;;29.40;7.72;;;;;;;3.25;100.00;101576.41;5243489;28;20037;-72
2023/01/10 07:19:12;;;;;;;28.83;7.27;;;;;;;3.31;100.00;101582.56;5243449;28;20492;-73
2023/01/10 07:21:43;;;;;;;30.17;6.82;;;;;;;3.32;100.00;101573.97;5243199;28;20056;-73
2023/01/10 07:24:15;;;;;;;39.17;7.67;;;;;;;3.34;100.00;101582.66;5243455;28;20029;-73
2023/01/10 07:26:46;;;;;;;25.07;5.40;;;;;;;3.34;100.00;101598.13;5243453;28;20116;-74
2023/01/10 07:29:18;;;;;;;31.57;7.33;;;;;;;3.37;100.00;101593.94;5242982;28;20385;-73
2023/01/10 07:31:50;;;;;;;29.17;5.93;;;;;;;3.35;100.00;101605.00;5242089;28;20040;-72
2023/01/10 07:34:21;;;;;;;25.33;6.90;;;;;;;3.37;100.00;101609.38;5243020;28;20029;-72
2023/01/10 07:36:53;;;;;;;26.43;6.23;;;;;;;3.40;100.00;101612.06;5242441;28;20046;-72
2023/01/10 07:39:24;;;;;;;33.03;7.17;;;;;;;3.37;100.00;101618.84;5243044;28;20056;-73
2023/01/10 07:41:56;;;;;;;35.57;7.53;;;;;;;3.36;100.00;101624.81;5243164;28;20040;-72
2023/01/10 07:44:27;;;;;;;34.83;7.30;;;;;;;3.37;100.00;101621.41;5242836;28;20029;-72
2023/01/10 07:46:58;;;;;;;38.47;7.63;;;;;;;3.31;100.00;101611.78;5242353;28;20037;-72
2023/01/10 07:49:30;;;;;;;31.27;5.87;;;;;;;3.35;100.00;101625.63;5241564;28;20481;-73
2023/01/10 07:52:01;;;;;;;25.43;6.27;;;;;;;3.35;100.00;101623.94;5241191;28;20076;-73
2023/01/10 07:54:32;;;;;;;30.70;6.90;;;;;;;3.28;100.00;101633.19;5243106;28;20439;-73
2023/01/10 07:57:04;;;;;;;22.77;6.83;;;;;;;3.28;100.00;101634.88;5248606;28;20446;-73
2023/01/10 07:59:35;;;;;;;29.73;6.73;;;;;;;3.29;100.00;101634.91;5254034;28;20038;-73
2023/01/10 08:02:09;;;;;;;30.77;7.47;;;;;;;3.29;100.00;101641.78;5258632;28;20033;-73
2023/01/10 08:04:40;;;;;;;26.83;7.03;;;;;;;3.21;100.00;101620.94;5250778;28;20029;-73
2023/01/10 08:07:12;;;;;;;24.60;6.50;;;;;;;3.16;100.00;101626.78;5247694;28;20037;-73
2023/01/10 08:09:43;;;;;;;25.53;6.90;;;;;;;3.12;100.00;101619.78;5244942;28;20465;-73
2023/01/10 08:12:14;;;;;;;26.70;6.10;;;;;;;3.11;100.00;101634.38;5244673;28;20057;-72
2023/01/10 08:14:46;;;;;;;27.70;7.20;;;;;;;3.11;100.00;101626.63;5243574;28;20034;-72
2023/01/10 08:17:17;;;;;;;31.40;6.00;;;;;;;3.12;100.00;101632.66;5243393;28;20048;-72
2023/01/10 08:19:49;;;;;;;23.50;6.97;;;;;;;3.13;100.00;101627.56;5244172;28;20481;-73
2023/01/10 08:22:20;;;;;;;25.77;6.57;;;;;;;3.20;100.00;101626.91;5244167;28;20042;-73
2023/01/10 08:24:52;;;;;;;31.10;7.33;;;;;;;3.24;100.00;101622.75;5244484;28;20087;-72
2023/01/10 08:27:23;;;;;;;26.43;6.80;;;;;;;3.27;100.00;101636.59;5243765;28;20037;-73
2023/01/10 08:29:55;;;;;;;28.40;7.47;;;;;;;3.29;100.00;101627.19;5243174;28;20107;-72
2023/01/10 08:32:26;;;;;;;26.00;6.20;;;;;;;3.31;100.00;101637.53;5242119;28;20025;-72
2023/01/10 08:34:57;;;;;;;31.13;6.43;;;;;;;3.38;100.00;101636.03;5242929;28;20064;-72
2023/01/10 08:37:29;;;;;;;32.83;7.03;;;;;;;3.44;100.00;101641.38;5242353;28;20041;-73
2023/01/10 08:40:01;;;;;;;24.00;5.23;;;;;;;3.46;100.00;101644.84;5242233;28;20036;-73
2023/01/10 08:42:33;;;;;;;22.00;6.15;;;;;;;3.53;100.00;101636.50;5242218;28;20029;-73
2023/01/10 08:45:05;;;;;;;27.50;6.28;;;;;;;3.56;100.00;101631.44;5242188;28;20490;-73
2023/01/10 08:47:36;;;;;;;27.43;6.00;;;;;;;3.60;100.00;101633.25;5242206;28;20034;-73
2023/01/10 08:50:08;;;;;;;20.53;5.60;;;;;;;3.67;100.00;101638.59;5242086;28;20033;-73
2023/01/10 08:52:39;;;;;;;27.52;6.68;;;;;;;3.64;100.00;101637.69;5242104;28;20029;-72
2023/01/10 08:55:11;;;;;;;27.87;5.73;;;;;;;3.73;100.00;101631.91;5241359;28;20072;-72
2023/01/10 08:57:42;;;;;;;26.60;6.87;;;;;;;3.79;100.00;101633.81;5241465;28;20136;-73
2023/01/10 09:00:14;;;;;;;22.10;5.50;;;;;;;3.87;100.00;101627.16;5245082;28;20116;-72
2023/01/10 09:02:46;;;;;;;32.75;6.72;;;;;;;3.90;100.00;101635.00;5246165;28;20044;-74
2023/01/10 09:05:17;;;;;;;18.53;5.13;;;;;;;3.94;100.00;101613.59;5247200;28;20044;-73
2023/01/10 09:07:48;;;;;;;31.53;7.33;;;;;;;4.02;100.00;101624.13;5247520;28;20032;-73
2023/01/10 09:10:20;;;;;;;26.37;5.23;;;;;;;4.02;100.00;101621.53;5247658;28;20034;-72
2023/01/10 09:12:54;;;;;;;25.40;6.20;;;;;;;4.05;100.00;101621.63;5246798;28;20449;-72
2023/01/10 09:15:29;;;;;;;23.42;5.93;;;;;;;4.09;100.00;101623.47;5246601;28;20041;-73
2023/01/10 09:18:06;;;;;;;22.52;6.28;;;;;;;4.13;100.00;101622.72;5246907;28;20068;-74
2023/01/10 09:20:39;;;;;;;24.35;5.40;;;;;;;4.11;100.00;101616.66;5246974;28;20443;-72
2023/01/10 09:23:16;;;;;;;22.33;6.32;;;;;;;4.09;100.00;101620.91;5246305;28;20045;-72
2023/01/10 09:25:49;;;;;;;27.95;6.03;;;;;;;4.08;100.00;101632.03;5246850;28;20030;-72
2023/01/10 09:28:23;;;;;;;22.88;6.20;;;;;;;4.11;100.00;101618.34;5245407;28;20037;-73
2023/01/10 09:30:54;;;;;;;25.23;5.65;;;;;;;4.12;100.00;101612.34;5244905;28;20468;-72
2023/01/10 09:33:25;;;;;;;26.67;7.00;;;;;;;4.17;100.00;101621.97;5246375;28;20087;-72
2023/01/10 09:35:57;;;;;;;32.80;6.47;;;;;;;4.18;100.00;101618.53;5245667;28;20120;-73
2023/01/10 09:38:29;;;;;;;21.85;5.03;;;;;;;4.24;100.00;101619.56;5244313;28;20041;-73
2023/01/10 09:41:47;;;;;;;23.23;5.57;;;;;;;4.30;100.00;101618.00;5245937;28;20504;-73
2023/01/10 09:44:34;;;;;;;24.30;6.40;;;;;;;4.47;100.00;101621.00;5232724;28;20459;-73
2023/01/10 09:47:11;;;;;;;32.50;6.55;;;;;;;4.44;100.00;101622.66;5245716;28;20025;-75
2023/01/10 09:49:49;;;;;;;26.60;6.03;;;;;;;4.49;100.00;101621.06;5245528;28;20036;-74
2023/01/10 09:52:26;;;;;;;22.33;5.70;;;;;;;4.55;100.00;101622.09;5245527;28;20032;-73
2023/01/10 09:55:15;;;;;;;29.00;7.93;;;;;;;4.62;100.00;101617.06;5245285;28;20036;-73
2023/01/10 09:57:48;;;;;;;18.92;4.80;;;;;;;4.69;100.00;101612.09;5244871;28;20041;-73
2023/01/10 10:00:23;;;;;;;24.33;6.20;;;;;;;4.75;100.00;101620.00;5244982;28;20037;-73
2023/01/10 10:02:56;;;;;;;24.83;5.63;;;;;;;4.82;99.76;101609.84;5245191;28;20116;-73
2023/01/10 10:05:28;;;;;;;23.85;5.10;;;;;;;4.84;99.59;101611.59;5244803;28;20100;-73
2023/01/10 10:08:03;;;;;;;18.73;5.53;;;;;;;4.95;99.98;101613.59;5245015;28;20037;-73
2023/01/10 10:10:42;;;;;;;23.15;5.85;;;;;;;4.99;99.69;101616.28;5244373;28;20025;-72
2023/01/10 10:13:24;;;;;;;20.23;5.55;;;;;;;5.05;99.30;101612.94;5244338;28;20040;-73
2023/01/10 10:16:10;;;;;;;31.45;6.35;;;;;;;5.10;98.66;101604.47;5244772;28;20663;-74
2023/01/10 10:18:57;;;;;;;31.65;7.53;;;;;;;5.17;99.10;101602.00;5244999;28;20034;-73
2023/01/10 10:21:37;;;;;;;23.92;6.07;;;;;;;5.19;98.79;101592.59;5244676;28;20167;-73
2023/01/10 10:24:41;;;;;;;20.58;6.57;;;;;;;5.24;98.32;101588.41;5244536;28;20385;-74
2023/01/10 10:27:22;;;;;;;20.27;4.93;;;;;;;5.21;98.02;101599.53;5232392;28;20120;-73
2023/01/10 10:30:11;;;;;;;20.80;6.40;;;;;;;5.23;97.59;101592.72;5244203;28;20052;-74
2023/01/10 10:32:54;;;;;;;25.30;6.43;;;;;;;5.28;98.03;101590.19;5244736;28;20038;-74
2023/01/10 10:35:31;;;;;;;25.40;6.72;;;;;;;5.29;97.67;101586.78;5244503;28;20051;-73
2023/01/10 10:38:41;;;;;;;19.05;4.97;;;;;;;5.39;98.60;101577.50;5244540;28;20496;-73
2023/01/10 10:41:35;;;;;;;19.15;5.72;;;;;;;5.38;98.35;101575.78;5222199;28;20069;-72
2023/01/10 10:44:29;;;;;;;19.58;5.57;;;;;;;5.40;97.82;101563.75;5223461;28;20110;-72
2023/01/10 10:47:00;;;;;;;26.85;6.65;;;;;;;5.42;98.21;101557.75;5223629;28;20026;-72
2023/01/10 10:49:38;;;;;;;19.63;6.93;;;;;;;5.47;97.43;101553.56;5223577;28;20033;-72
2023/01/10 10:52:18;;;;;;;24.23;6.15;;;;;;;5.52;97.92;101547.59;5223575;28;20116;-73
2023/01/10 10:54:51;;;;;;;26.58;6.85;;;;;;;5.52;97.24;101548.47;5227494;28;20453;-73
2023/01/10 10:57:26;;;;;;;22.70;6.88;;;;;;;5.59;97.12;101544.31;5243732;28;20043;-73
2023/01/10 11:00:00;;;;;;;32.70;7.47;;;;;;;5.61;96.55;101542.63;5243263;28;20155;-72
2023/01/10 11:02:39;;;;;;;26.58;6.00;;;;;;;5.63;96.44;101536.63;5244032;28;20109;-74
2023/01/10 11:05:19;;;;;;;28.65;6.70;;;;;;;5.74;96.67;101535.97;5243990;28;20168;-73
2023/01/10 11:08:03;;;;;;;18.52;4.93;;;;;;;5.78;96.38;101533.47;5247513;28;20036;-73
2023/01/10 11:10:35;;;;;;;18.45;4.95;;;;;;;5.78;96.30;101520.53;5266333;28;20017;-73
2023/01/10 11:13:19;;;;;;;23.87;5.70;;;;;;;5.76;96.01;101514.44;5257916;28;20044;-74
2023/01/10 11:15:50;;;;;;;22.60;6.47;;;;;;;5.78;95.90;101517.97;5247998;28;20030;-73
2023/01/10 11:18:27;;;;;;;26.30;6.80;;;;;;;5.78;95.55;101512.78;5245264;28;20034;-74
2023/01/10 11:21:13;;;;;;;19.92;6.75;;;;;;;5.77;95.34;101510.16;5245858;28;20032;-74
2023/01/10 11:23:55;;;;;;;24.13;5.82;;;;;;;5.83;96.33;101515.47;5245599;28;20077;-74
2023/01/10 11:26:36;;;;;;;24.27;6.40;;;;;;;5.84;95.88;101505.16;5245242;28;20097;-73
2023/01/10 11:29:18;;;;;;;28.60;6.30;;;;;;;5.88;96.00;101512.97;5244363;28;20077;-73
2023/01/10 11:31:50;;;;;;;22.35;6.32;;;;;;;5.90;95.25;101508.69;5245413;28;20041;-73
2023/01/10 11:34:29;;;;;;;23.98;7.65;;;;;;;5.94;95.42;101513.94;5245028;28;20124;-73
2023/01/10 11:37:18;;;;;;;26.35;5.70;;;;;;;5.97;95.54;101503.69;5245212;28;20025;-73
2023/01/10 11:40:14;;;;;;;25.52;6.90;;;;;;;6.02;95.54;101506.31;5244914;28;20052;-74
2023/01/10 11:42:46;;;;;;;17.00;6.47;;;;;;;5.97;94.89;101502.78;5244325;28;20032;-73
2023/01/10 11:45:18;;;;;;;23.27;5.70;;;;;;;6.00;94.63;101503.69;5243505;28;20033;-74
2023/01/10 11:48:01;;;;;;;23.60;7.00;;;;;;;5.97;94.99;101495.91;5243145;28;20103;-72
2023/01/10 11:50:42;;;;;;;25.63;6.28;;;;;;;5.96;94.94;101490.69;5243096;28;20475;-73
2023/01/10 11:53:33;;;;;;;25.52;6.25;;;;;;;6.00;94.83;101497.66;5242997;28;20029;-73
2023/01/10 11:56:06;;;;;;;21.05;5.20;;;;;;;6.00;94.42;101495.06;5242956;28;20029;-72
2023/01/10 11:58:39;;;;;;;26.02;5.55;;;;;;;6.05;94.98;101485.66;5242030;28;20081;-72
2023/01/10 12:01:28;;;;;;;;;;;;;;;6.13;94.84;101484.09;5243246;28;20461;-73
2023/01/10 12:03:59;;;;;;;28.55;6.68;;;;;;;6.14;94.49;101482.38;5242563;28;20234;-72